<?xml version='1.0' encoding='UTF-8'?><gpx version="1.1" creator="JPX - https://github.com/jenetics/jpx" xmlns="http://www.topografix.com/GPX/1/1"><trk><trkseg><trkpt lat="45.552245448501864" lon="11.433594109449455"><ele>170.99999999999997</ele><time>2026-04-05T14:15:04.999Z</time></trkpt><trkpt lat="45.55228900830745" lon="11.433665116442397"><ele>171.0</ele><time>2026-04-05T14:15:13.999Z</time></trkpt><trkpt lat="45.55230570433045" lon="11.433756522313164"><ele>171.0</ele><time>2026-04-05T14:15:21.999Z</time></trkpt><trkpt lat="45.55233338563039" lon="11.433843626527302"><ele>171.0</ele><time>2026-04-05T14:15:35.999Z</time></trkpt><trkpt lat="45.55237595335949" lon="11.433930072075833"><ele>171.0</ele><time>2026-04-05T14:15:55.999Z</time></trkpt><trkpt lat="45.552383121713554" lon="11.434028023424402"><ele>170.99999999999997</ele><time>2026-04-05T14:16:31.999Z</time></trkpt><trkpt lat="45.55244276478406" lon="11.434061591041846"><ele>171.0</ele><time>2026-04-05T14:17:22.999Z</time></trkpt><trkpt lat="45.55253185201086" lon="11.434066898707833"><ele>172.66666666666666</ele><time>2026-04-05T14:17:32.999Z</time></trkpt><trkpt lat="45.552600005217066" lon="11.43408909667577"><ele>174.33333333333334</ele><time>2026-04-05T14:17:45.999Z</time></trkpt><trkpt lat="45.552665995316424" lon="11.43410477519333"><ele>176.0</ele><time>2026-04-05T14:17:54.999Z</time></trkpt><trkpt lat="45.55273219747789" lon="11.434100149524294"><ele>177.66666666666669</ele><time>2026-04-05T14:17:59.999Z</time></trkpt><trkpt lat="45.55281323684472" lon="11.434163900475774"><ele>179.33333333333334</ele><time>2026-04-05T14:19:48Z</time></trkpt><trkpt lat="45.55292198467509" lon="11.43418402400701"><ele>181.0</ele><time>2026-04-05T14:20:08Z</time></trkpt><trkpt lat="45.55285080439928" lon="11.434220486450505"><ele>181.0</ele><time>2026-04-05T14:20:33Z</time></trkpt><trkpt lat="45.55277701822765" lon="11.434237000668249"><ele>181.0</ele><time>2026-04-05T14:20:39Z</time></trkpt><trkpt lat="45.55271191045408" lon="11.434263365297301"><ele>181.0</ele><time>2026-04-05T14:20:47Z</time></trkpt><trkpt lat="45.55263910766663" lon="11.434288958145684"><ele>181.0</ele><time>2026-04-05T14:20:56Z</time></trkpt><trkpt lat="45.5525629228461" lon="11.434415503261139"><ele>181.0</ele><time>2026-04-05T14:21:12Z</time></trkpt><trkpt lat="45.55250845688674" lon="11.434471411591677"><ele>181.0</ele><time>2026-04-05T14:21:19Z</time></trkpt><trkpt lat="45.5524404176464" lon="11.434477203366384"><ele>181.0</ele><time>2026-04-05T14:21:22Z</time></trkpt><trkpt lat="45.55250183401298" lon="11.434535843444813"><ele>181.0</ele><time>2026-04-05T14:21:28Z</time></trkpt><trkpt lat="45.55243394797667" lon="11.434545215098932"><ele>181.0</ele><time>2026-04-05T14:21:37Z</time></trkpt><trkpt lat="45.55237003309972" lon="11.434595630176366"><ele>181.0</ele><time>2026-04-05T14:21:44Z</time></trkpt><trkpt lat="45.5523281402579" lon="11.434678187738207"><ele>181.0</ele><time>2026-04-05T14:21:49Z</time></trkpt><trkpt lat="45.5522868787413" lon="11.43475126101314"><ele>181.0</ele><time>2026-04-05T14:21:56Z</time></trkpt><trkpt lat="45.55222868019811" lon="11.434801582903416"><ele>181.0</ele><time>2026-04-05T14:22:03Z</time></trkpt><trkpt lat="45.552159609751314" lon="11.434843105248833"><ele>181.33333333333334</ele><time>2026-04-05T14:22:09Z</time></trkpt><trkpt lat="45.55207781215128" lon="11.434919461941675"><ele>181.66666666666669</ele><time>2026-04-05T14:22:17Z</time></trkpt><trkpt lat="45.55201873527613" lon="11.43500107534606"><ele>182.0</ele><time>2026-04-05T14:22:28Z</time></trkpt><trkpt lat="45.55195553960275" lon="11.43502493309797"><ele>182.33333333333334</ele><time>2026-04-05T14:22:37Z</time></trkpt><trkpt lat="45.55189345600325" lon="11.435088519153117"><ele>182.66666666666666</ele><time>2026-04-05T14:22:48Z</time></trkpt><trkpt lat="45.55182808662864" lon="11.435145851012194"><ele>183.0</ele><time>2026-04-05T14:22:57Z</time></trkpt><trkpt lat="45.55175723162225" lon="11.435163566042494"><ele>183.0</ele><time>2026-04-05T14:23:02Z</time></trkpt><trkpt lat="45.551707062726415" lon="11.435233580954664"><ele>183.0</ele><time>2026-04-05T14:23:07Z</time></trkpt><trkpt lat="45.551661918063125" lon="11.435299771053796"><ele>183.0</ele><time>2026-04-05T14:23:13Z</time></trkpt><trkpt lat="45.55159527127951" lon="11.435344047096274"><ele>183.0</ele><time>2026-04-05T14:23:19Z</time></trkpt><trkpt lat="45.55152938993995" lon="11.435386437445105"><ele>183.0</ele><time>2026-04-05T14:23:26.001Z</time></trkpt><trkpt lat="45.55145363521142" lon="11.435377596523258"><ele>183.0</ele><time>2026-04-05T14:23:36Z</time></trkpt><trkpt lat="45.551400743066026" lon="11.435438839743332"><ele>183.0</ele><time>2026-04-05T14:23:40Z</time></trkpt><trkpt lat="45.55133003224936" lon="11.43546393494992"><ele>180.28571428571428</ele><time>2026-04-05T14:23:50Z</time></trkpt><trkpt lat="45.55126636674161" lon="11.43547877534428"><ele>177.57142857142858</ele><time>2026-04-05T14:24:01Z</time></trkpt><trkpt lat="45.551203317983145" lon="11.435479035498659"><ele>174.85714285714283</ele><time>2026-04-05T14:24:11Z</time></trkpt><trkpt lat="45.551141480333385" lon="11.435528525732762"><ele>172.14285714285714</ele><time>2026-04-05T14:24:16Z</time></trkpt><trkpt lat="45.5510634016363" lon="11.435563913508835"><ele>169.42857142857142</ele><time>2026-04-05T14:24:24Z</time></trkpt><trkpt lat="45.55098571408412" lon="11.435575279874397"><ele>166.7142857142857</ele><time>2026-04-05T14:24:32Z</time></trkpt><trkpt lat="45.55090597759679" lon="11.43559404783177"><ele>164.0</ele><time>2026-04-05T14:24:40Z</time></trkpt><trkpt lat="45.550841624531735" lon="11.435613357411517"><ele>164.0</ele><time>2026-04-05T14:24:45Z</time></trkpt><trkpt lat="45.55077339395117" lon="11.435632517790063"><ele>164.0</ele><time>2026-04-05T14:24:50Z</time></trkpt><trkpt lat="45.55071468700436" lon="11.435677264611439"><ele>164.0</ele><time>2026-04-05T14:24:59Z</time></trkpt><trkpt lat="45.55077172595881" lon="11.435746315011523"><ele>164.0</ele><time>2026-04-05T14:25:27Z</time></trkpt><trkpt lat="45.55085970985461" lon="11.435761488254856"><ele>164.0</ele><time>2026-04-05T14:25:40Z</time></trkpt><trkpt lat="45.55096145182093" lon="11.435724483623034"><ele>164.0</ele><time>2026-04-05T14:26:03Z</time></trkpt><trkpt lat="45.551030651209146" lon="11.435725532710574"><ele>164.0</ele><time>2026-04-05T14:26:12Z</time></trkpt><trkpt lat="45.55110326527867" lon="11.435739478390559"><ele>164.0</ele><time>2026-04-05T14:26:25Z</time></trkpt><trkpt lat="45.551172550339906" lon="11.435719711540969"><ele>164.0</ele><time>2026-04-05T14:26:34Z</time></trkpt><trkpt lat="45.55123846911835" lon="11.435708740132192"><ele>164.0</ele><time>2026-04-05T14:26:46Z</time></trkpt><trkpt lat="45.551303214147545" lon="11.435706509606572"><ele>164.0</ele><time>2026-04-05T14:26:57Z</time></trkpt><trkpt lat="45.551385393766836" lon="11.435768367958993"><ele>164.0</ele><time>2026-04-05T14:27:04Z</time></trkpt><trkpt lat="45.55147569895074" lon="11.435715491570612"><ele>162.33333333333331</ele><time>2026-04-05T14:27:14Z</time></trkpt><trkpt lat="45.55153952742588" lon="11.435668031713424"><ele>160.66666666666666</ele><time>2026-04-05T14:27:17Z</time></trkpt><trkpt lat="45.5516194353537" lon="11.435685271001903"><ele>159.0</ele><time>2026-04-05T14:27:27Z</time></trkpt><trkpt lat="45.55168807598892" lon="11.435672888105865"><ele>157.33333333333334</ele><time>2026-04-05T14:27:37Z</time></trkpt><trkpt lat="45.55176027064905" lon="11.435651430554243"><ele>155.66666666666669</ele><time>2026-04-05T14:27:45Z</time></trkpt><trkpt lat="45.5518350643257" lon="11.435609875602815"><ele>154.0</ele><time>2026-04-05T14:27:59Z</time></trkpt><trkpt lat="45.551912051345035" lon="11.435631215726268"><ele>154.0</ele><time>2026-04-05T14:28:10Z</time></trkpt><trkpt lat="45.55198351154932" lon="11.43565560746173"><ele>154.0</ele><time>2026-04-05T14:28:23Z</time></trkpt><trkpt lat="45.55203652808032" lon="11.435605921357762"><ele>154.0</ele><time>2026-04-05T14:28:27Z</time></trkpt><trkpt lat="45.55217950525589" lon="11.43558070099233"><ele>154.0</ele><time>2026-04-05T14:28:46Z</time></trkpt><trkpt lat="45.55224085754902" lon="11.435523641259529"><ele>154.0</ele><time>2026-04-05T14:28:54Z</time></trkpt><trkpt lat="45.552307650053926" lon="11.43550772240051"><ele>154.0</ele><time>2026-04-05T14:29:02Z</time></trkpt><trkpt lat="45.55240463053434" lon="11.435483925274248"><ele>155.66666666666669</ele><time>2026-04-05T14:29:17Z</time></trkpt><trkpt lat="45.552469945382924" lon="11.435453201740666"><ele>157.33333333333334</ele><time>2026-04-05T14:29:26Z</time></trkpt><trkpt lat="45.55254382870274" lon="11.43544127080917"><ele>159.0</ele><time>2026-04-05T14:29:38Z</time></trkpt><trkpt lat="45.55261726365148" lon="11.435457323667206"><ele>160.66666666666666</ele><time>2026-04-05T14:29:44Z</time></trkpt><trkpt lat="45.552685784029656" lon="11.435458902287346"><ele>162.33333333333331</ele><time>2026-04-05T14:29:53Z</time></trkpt><trkpt lat="45.55280927007227" lon="11.435518370998862"><ele>164.0</ele><time>2026-04-05T14:30:10Z</time></trkpt><trkpt lat="45.5528761135876" lon="11.435555479950038"><ele>158.0</ele><time>2026-04-05T14:30:16Z</time></trkpt><trkpt lat="45.55284097267524" lon="11.435476235708585"><ele>152.0</ele><time>2026-04-05T14:30:24Z</time></trkpt><trkpt lat="45.55288824096023" lon="11.435565934571471"><ele>146.0</ele><time>2026-04-05T14:30:43Z</time></trkpt><trkpt lat="45.55299697028716" lon="11.435723430556925"><ele>140.0</ele><time>2026-04-05T14:30:48Z</time></trkpt><trkpt lat="45.55306521816465" lon="11.435749416828617"><ele>134.0</ele><time>2026-04-05T14:30:54Z</time></trkpt><trkpt lat="45.55311356978681" lon="11.435900872481543"><ele>134.0</ele><time>2026-04-05T14:31:08Z</time></trkpt><trkpt lat="45.553052737138245" lon="11.435977075157423"><ele>134.0</ele><time>2026-04-05T14:31:16Z</time></trkpt><trkpt lat="45.55311851715481" lon="11.436058406144019"><ele>134.0</ele><time>2026-04-05T14:31:21Z</time></trkpt><trkpt lat="45.553159145905994" lon="11.436223168455824"><ele>134.0</ele><time>2026-04-05T14:32:27Z</time></trkpt><trkpt lat="45.553186941443464" lon="11.43633462572541"><ele>134.0</ele><time>2026-04-05T14:32:53Z</time></trkpt><trkpt lat="45.55317722498903" lon="11.436226016992173"><ele>134.0</ele><time>2026-04-05T14:33:52Z</time></trkpt><trkpt lat="45.5531067713151" lon="11.436268193160595"><ele>134.0</ele><time>2026-04-05T14:33:56Z</time></trkpt><trkpt lat="45.55303566371437" lon="11.436317302746632"><ele>134.0</ele><time>2026-04-05T14:34:09Z</time></trkpt><trkpt lat="45.55288827560983" lon="11.436379406723415"><ele>134.0</ele><time>2026-04-05T14:34:19Z</time></trkpt><trkpt lat="45.552828713598785" lon="11.436420182170913"><ele>134.0</ele><time>2026-04-05T14:34:23Z</time></trkpt><trkpt lat="45.55276513956201" lon="11.4364313344874"><ele>134.0</ele><time>2026-04-05T14:34:31Z</time></trkpt><trkpt lat="45.55270582553499" lon="11.436471651238882"><ele>130.71428571428572</ele><time>2026-04-05T14:34:38Z</time></trkpt><trkpt lat="45.552652834693944" lon="11.436526445399807"><ele>127.42857142857142</ele><time>2026-04-05T14:34:45Z</time></trkpt><trkpt lat="45.55259886311992" lon="11.436573630311223"><ele>124.14285714285714</ele><time>2026-04-05T14:34:52Z</time></trkpt><trkpt lat="45.552545585100745" lon="11.436639366571082"><ele>120.85714285714286</ele><time>2026-04-05T14:34:57Z</time></trkpt><trkpt lat="45.552487034644415" lon="11.436673313298131"><ele>117.57142857142858</ele><time>2026-04-05T14:35:02Z</time></trkpt><trkpt lat="45.55243412606026" lon="11.436729706154829"><ele>114.28571428571428</ele><time>2026-04-05T14:35:06Z</time></trkpt><trkpt lat="45.552372880289624" lon="11.436777797286041"><ele>111.0</ele><time>2026-04-05T14:35:11Z</time></trkpt><trkpt lat="45.5522977908424" lon="11.436814572918678"><ele>111.0</ele><time>2026-04-05T14:35:17Z</time></trkpt><trkpt lat="45.55224170742547" lon="11.436855901610576"><ele>111.0</ele><time>2026-04-05T14:35:25Z</time></trkpt><trkpt lat="45.55218635873288" lon="11.436912814443103"><ele>111.0</ele><time>2026-04-05T14:35:32Z</time></trkpt><trkpt lat="45.55212936108011" lon="11.437003089309805"><ele>111.0</ele><time>2026-04-05T14:35:37Z</time></trkpt><trkpt lat="45.55207480901391" lon="11.437053119229077"><ele>111.0</ele><time>2026-04-05T14:35:42Z</time></trkpt><trkpt lat="45.55202354543795" lon="11.437110999977252"><ele>111.0</ele><time>2026-04-05T14:35:48Z</time></trkpt><trkpt lat="45.55196407192731" lon="11.437154624512056"><ele>111.0</ele><time>2026-04-05T14:35:55Z</time></trkpt><trkpt lat="45.551901290627576" lon="11.437179956378147"><ele>110.14285714285714</ele><time>2026-04-05T14:36:01Z</time></trkpt><trkpt lat="45.55183415520767" lon="11.437225312234318"><ele>109.28571428571429</ele><time>2026-04-05T14:36:07.999Z</time></trkpt><trkpt lat="45.55176824242811" lon="11.437258318425236"><ele>108.42857142857143</ele><time>2026-04-05T14:36:14.999Z</time></trkpt><trkpt lat="45.55170702696221" lon="11.437288073471118"><ele>107.57142857142857</ele><time>2026-04-05T14:36:20.999Z</time></trkpt><trkpt lat="45.55163866277512" lon="11.437308349807166"><ele>106.71428571428572</ele><time>2026-04-05T14:36:27.999Z</time></trkpt><trkpt lat="45.55158313032039" lon="11.437361141179663"><ele>105.85714285714286</ele><time>2026-04-05T14:36:34.999Z</time></trkpt><trkpt lat="45.55152538117038" lon="11.437408818375248"><ele>105.0</ele><time>2026-04-05T14:36:41.999Z</time></trkpt><trkpt lat="45.55147276516027" lon="11.43746006336618"><ele>105.0</ele><time>2026-04-05T14:36:48.999Z</time></trkpt><trkpt lat="45.551405560654274" lon="11.43749111458008"><ele>105.0</ele><time>2026-04-05T14:36:56.999Z</time></trkpt><trkpt lat="45.55134408760603" lon="11.437514805956926"><ele>105.0</ele><time>2026-04-05T14:37:02.999Z</time></trkpt><trkpt lat="45.55128591149597" lon="11.437558562036607"><ele>105.0</ele><time>2026-04-05T14:37:08.999Z</time></trkpt><trkpt lat="45.55122365503446" lon="11.437586436052328"><ele>105.0</ele><time>2026-04-05T14:37:15.999Z</time></trkpt><trkpt lat="45.55115941669533" lon="11.4376157253371"><ele>105.0</ele><time>2026-04-05T14:37:22.999Z</time></trkpt><trkpt lat="45.55109977626142" lon="11.437648811502106"><ele>105.0</ele><time>2026-04-05T14:37:29.999Z</time></trkpt><trkpt lat="45.55103150436577" lon="11.437680450783573"><ele>105.85714285714286</ele><time>2026-04-05T14:37:36.999Z</time></trkpt><trkpt lat="45.550971015989745" lon="11.437745168231919"><ele>106.71428571428572</ele><time>2026-04-05T14:37:55.999Z</time></trkpt><trkpt lat="45.550913596129114" lon="11.437787621031664"><ele>107.57142857142857</ele><time>2026-04-05T14:38:03.995Z</time></trkpt><trkpt lat="45.550873780420105" lon="11.437877417066314"><ele>108.42857142857143</ele><time>2026-04-05T14:38:36.998Z</time></trkpt><trkpt lat="45.55080406996513" lon="11.4378904439344"><ele>109.28571428571429</ele><time>2026-04-05T14:38:49.998Z</time></trkpt><trkpt lat="45.550748191867996" lon="11.437946429491303"><ele>110.14285714285714</ele><time>2026-04-05T14:38:57.999Z</time></trkpt><trkpt lat="45.550695503009266" lon="11.43800344386611"><ele>111.0</ele><time>2026-04-05T14:39:04.999Z</time></trkpt><trkpt lat="45.55062820604716" lon="11.438023980567909"><ele>111.57142857142857</ele><time>2026-04-05T14:39:10.999Z</time></trkpt><trkpt lat="45.550551495959255" lon="11.438077992113021"><ele>112.14285714285714</ele><time>2026-04-05T14:39:18.999Z</time></trkpt><trkpt lat="45.550486851343614" lon="11.438093598975597"><ele>112.71428571428571</ele><time>2026-04-05T14:39:27.999Z</time></trkpt><trkpt lat="45.55043112576044" lon="11.438149377242949"><ele>113.28571428571428</ele><time>2026-04-05T14:39:43.999Z</time></trkpt><trkpt lat="45.55038038747536" lon="11.438206227189115"><ele>113.85714285714286</ele><time>2026-04-05T14:39:52.999Z</time></trkpt><trkpt lat="45.55036959080425" lon="11.438308682836043"><ele>114.42857142857142</ele><time>2026-04-05T14:40:01.999Z</time></trkpt><trkpt lat="45.55031921006738" lon="11.438390584986786"><ele>114.99999999999999</ele><time>2026-04-05T14:40:06.999Z</time></trkpt><trkpt lat="45.550247693524376" lon="11.43838265720537"><ele>115.00000000000001</ele><time>2026-04-05T14:40:13.999Z</time></trkpt><trkpt lat="45.55019186634422" lon="11.438442432870165"><ele>115.0</ele><time>2026-04-05T14:40:18.999Z</time></trkpt><trkpt lat="45.550128459195065" lon="11.438481963423644"><ele>115.0</ele><time>2026-04-05T14:40:29Z</time></trkpt><trkpt lat="45.55007354115287" lon="11.438605353141037"><ele>115.0</ele><time>2026-04-05T14:40:39Z</time></trkpt><trkpt lat="45.55005080198494" lon="11.438692598294153"><ele>115.00000000000001</ele><time>2026-04-05T14:40:51Z</time></trkpt><trkpt lat="45.55002682035967" lon="11.43878126657475"><ele>115.0</ele><time>2026-04-05T14:40:57Z</time></trkpt><trkpt lat="45.54997856854888" lon="11.438878892045718"><ele>113.57142857142856</ele><time>2026-04-05T14:41:03Z</time></trkpt><trkpt lat="45.54993506542285" lon="11.4389441714689"><ele>112.14285714285714</ele><time>2026-04-05T14:41:06Z</time></trkpt><trkpt lat="45.54992014392919" lon="11.439033293904242"><ele>110.71428571428571</ele><time>2026-04-05T14:41:13Z</time></trkpt><trkpt lat="45.54991482862135" lon="11.439136537807734"><ele>109.28571428571428</ele><time>2026-04-05T14:41:25Z</time></trkpt><trkpt lat="45.54988901976448" lon="11.43922680384522"><ele>107.85714285714286</ele><time>2026-04-05T14:41:31Z</time></trkpt><trkpt lat="45.54985167775893" lon="11.43931112624756"><ele>106.42857142857143</ele><time>2026-04-05T14:41:38Z</time></trkpt><trkpt lat="45.54978695685158" lon="11.439357230965166"><ele>105.0</ele><time>2026-04-05T14:41:45.001Z</time></trkpt><trkpt lat="45.54973817697243" lon="11.439443284595106"><ele>105.0</ele><time>2026-04-05T14:41:51.001Z</time></trkpt><trkpt lat="45.549671406762904" lon="11.43949561103224"><ele>105.0</ele><time>2026-04-05T14:41:59.001Z</time></trkpt><trkpt lat="45.54959812771598" lon="11.439531658072292"><ele>105.0</ele><time>2026-04-05T14:42:10.001Z</time></trkpt><trkpt lat="45.549543158240475" lon="11.439577116083717"><ele>105.0</ele><time>2026-04-05T14:42:16.999Z</time></trkpt><trkpt lat="45.54949170367313" lon="11.439630434059605"><ele>105.0</ele><time>2026-04-05T14:42:23.999Z</time></trkpt><trkpt lat="45.54944280095457" lon="11.43969102119016"><ele>105.0</ele><time>2026-04-05T14:42:31.999Z</time></trkpt><trkpt lat="45.54937536291075" lon="11.439726689884367"><ele>105.0</ele><time>2026-04-05T14:42:43Z</time></trkpt><trkpt lat="45.54932209160647" lon="11.439788296604545"><ele>104.14285714285714</ele><time>2026-04-05T14:42:53Z</time></trkpt><trkpt lat="45.549274494643385" lon="11.439853438054405"><ele>103.28571428571428</ele><time>2026-04-05T14:43:01Z</time></trkpt><trkpt lat="45.54921026084373" lon="11.439931108842465"><ele>102.42857142857143</ele><time>2026-04-05T14:43:09Z</time></trkpt><trkpt lat="45.54915112724282" lon="11.439972712754907"><ele>101.57142857142857</ele><time>2026-04-05T14:43:16Z</time></trkpt><trkpt lat="45.54908893004846" lon="11.440018420918681"><ele>100.71428571428571</ele><time>2026-04-05T14:43:45Z</time></trkpt><trkpt lat="45.54902368545699" lon="11.440066199470293"><ele>99.85714285714286</ele><time>2026-04-05T14:43:52.001Z</time></trkpt><trkpt lat="45.54897042480212" lon="11.44011692186182"><ele>99.0</ele><time>2026-04-05T14:44:00.001Z</time></trkpt><trkpt lat="45.54891387382863" lon="11.440163539826692"><ele>99.0</ele><time>2026-04-05T14:44:08.001Z</time></trkpt><trkpt lat="45.548852049743644" lon="11.44020773895988"><ele>99.0</ele><time>2026-04-05T14:44:15.001Z</time></trkpt><trkpt lat="45.54878779753995" lon="11.440246138192352"><ele>99.0</ele><time>2026-04-05T14:44:22Z</time></trkpt><trkpt lat="45.548726068658105" lon="11.440284102877685"><ele>99.0</ele><time>2026-04-05T14:44:30Z</time></trkpt><trkpt lat="45.54866614947704" lon="11.4403281720816"><ele>99.0</ele><time>2026-04-05T14:44:37Z</time></trkpt><trkpt lat="45.548602851034666" lon="11.440373426000772"><ele>99.0</ele><time>2026-04-05T14:44:44Z</time></trkpt><trkpt lat="45.54854986566387" lon="11.440424842226847"><ele>99.0</ele><time>2026-04-05T14:44:50Z</time></trkpt><trkpt lat="45.548491234153765" lon="11.440482093790846"><ele>98.14285714285715</ele><time>2026-04-05T14:45:01Z</time></trkpt><trkpt lat="45.54842268017431" lon="11.440515565529111"><ele>97.28571428571428</ele><time>2026-04-05T14:45:07Z</time></trkpt><trkpt lat="45.54835518997526" lon="11.440558430198916"><ele>96.42857142857143</ele><time>2026-04-05T14:45:17Z</time></trkpt><trkpt lat="45.54829394127854" lon="11.440592008230228"><ele>95.57142857142858</ele><time>2026-04-05T14:45:23Z</time></trkpt><trkpt lat="45.548226202010554" lon="11.440604409956485"><ele>94.71428571428572</ele><time>2026-04-05T14:45:29.001Z</time></trkpt><trkpt lat="45.54815382947613" lon="11.440615269438489"><ele>93.85714285714286</ele><time>2026-04-05T14:45:43.001Z</time></trkpt><trkpt lat="45.54809002207967" lon="11.440632795996358"><ele>93.0</ele><time>2026-04-05T14:45:53.001Z</time></trkpt><trkpt lat="45.54801757329126" lon="11.440659814405302"><ele>93.00000000000001</ele><time>2026-04-05T14:45:58.001Z</time></trkpt><trkpt lat="45.5479205255212" lon="11.440624530892828"><ele>93.0</ele><time>2026-04-05T14:46:12.001Z</time></trkpt><trkpt lat="45.54785330763403" lon="11.440613035222265"><ele>93.0</ele><time>2026-04-05T14:46:24.001Z</time></trkpt><trkpt lat="45.54778597438721" lon="11.440596193397433"><ele>93.0</ele><time>2026-04-05T14:46:29Z</time></trkpt><trkpt lat="45.54772092633155" lon="11.440561248022664"><ele>93.0</ele><time>2026-04-05T14:46:35Z</time></trkpt><trkpt lat="45.547664103939965" lon="11.440516409692473"><ele>93.00000000000001</ele><time>2026-04-05T14:46:40Z</time></trkpt><trkpt lat="45.54759394860054" lon="11.440486584170685"><ele>93.0</ele><time>2026-04-05T14:46:52Z</time></trkpt><trkpt lat="45.54752304736293" lon="11.440477252188723"><ele>95.16666666666667</ele><time>2026-04-05T14:46:58Z</time></trkpt><trkpt lat="45.54743648463443" lon="11.440392694586489"><ele>97.33333333333334</ele><time>2026-04-05T14:47:24.001Z</time></trkpt><trkpt lat="45.54740787927731" lon="11.440304773894534"><ele>99.5</ele><time>2026-04-05T14:47:38.001Z</time></trkpt><trkpt lat="45.54733029740436" lon="11.440318421360997"><ele>101.66666666666667</ele><time>2026-04-05T14:47:47.001Z</time></trkpt><trkpt lat="45.54726063917585" lon="11.44031512134883"><ele>103.83333333333334</ele><time>2026-04-05T14:47:57.001Z</time></trkpt><trkpt lat="45.54721094671082" lon="11.44024829145204"><ele>106.0</ele><time>2026-04-05T14:48:02.001Z</time></trkpt><trkpt lat="45.54714669916736" lon="11.440249225970545"><ele>106.0</ele><time>2026-04-05T14:48:07.001Z</time></trkpt><trkpt lat="45.547069327035594" lon="11.440221807928708"><ele>106.0</ele><time>2026-04-05T14:48:13.001Z</time></trkpt><trkpt lat="45.54699976509083" lon="11.440221229297146"><ele>106.0</ele><time>2026-04-05T14:48:19.002Z</time></trkpt><trkpt lat="45.54693929024211" lon="11.440187829516034"><ele>106.0</ele><time>2026-04-05T14:48:25.002Z</time></trkpt><trkpt lat="45.54687457195584" lon="11.440156295800207"><ele>106.0</ele><time>2026-04-05T14:48:46.002Z</time></trkpt><trkpt lat="45.546804626101796" lon="11.440109580657062"><ele>106.0</ele><time>2026-04-05T14:48:59.001Z</time></trkpt><trkpt lat="45.546741764112426" lon="11.440102132075133"><ele>106.0</ele><time>2026-04-05T14:49:04.001Z</time></trkpt><trkpt lat="45.54668250918346" lon="11.440065683145818"><ele>103.33333333333334</ele><time>2026-04-05T14:49:09.001Z</time></trkpt><trkpt lat="45.54661915480746" lon="11.440033540231562"><ele>100.66666666666667</ele><time>2026-04-05T14:49:16.001Z</time></trkpt><trkpt lat="45.54655421839309" lon="11.44004194087645"><ele>98.0</ele><time>2026-04-05T14:49:25.001Z</time></trkpt><trkpt lat="45.546449101514504" lon="11.440095514259687"><ele>95.33333333333334</ele><time>2026-04-05T14:49:35.001Z</time></trkpt><trkpt lat="45.54637300292539" lon="11.440136263060332"><ele>92.66666666666667</ele><time>2026-04-05T14:49:52.001Z</time></trkpt><trkpt lat="45.54632682591325" lon="11.440205668405321"><ele>90.0</ele><time>2026-04-05T14:49:57.001Z</time></trkpt><trkpt lat="45.54624819588829" lon="11.440204497759357"><ele>90.57142857142857</ele><time>2026-04-05T14:50:01.002Z</time></trkpt><trkpt lat="45.54618204921202" lon="11.440250876803278"><ele>91.14285714285715</ele><time>2026-04-05T14:50:06.002Z</time></trkpt><trkpt lat="45.546165624470525" lon="11.44035450070759"><ele>91.71428571428572</ele><time>2026-04-05T14:50:15.002Z</time></trkpt><trkpt lat="45.54610865080226" lon="11.440397095781925"><ele>92.28571428571428</ele><time>2026-04-05T14:50:19.002Z</time></trkpt><trkpt lat="45.54606813224591" lon="11.44048776219618"><ele>92.85714285714286</ele><time>2026-04-05T14:50:31.002Z</time></trkpt><trkpt lat="45.546016233877246" lon="11.440584020632526"><ele>93.42857142857143</ele><time>2026-04-05T14:50:41.002Z</time></trkpt><trkpt lat="45.545967851195876" lon="11.440656248687347"><ele>94.0</ele><time>2026-04-05T14:50:47.002Z</time></trkpt><trkpt lat="45.54593412873479" lon="11.440733342162096"><ele>94.0</ele><time>2026-04-05T14:50:52.002Z</time></trkpt><trkpt lat="45.545921008962" lon="11.440834534520992"><ele>94.0</ele><time>2026-04-05T14:50:58.001Z</time></trkpt><trkpt lat="45.54587712676789" lon="11.440915498404497"><ele>94.0</ele><time>2026-04-05T14:51:05.001Z</time></trkpt><trkpt lat="45.545815806863494" lon="11.440979675140529"><ele>94.0</ele><time>2026-04-05T14:51:14.001Z</time></trkpt><trkpt lat="45.545761904917676" lon="11.44103117525973"><ele>94.0</ele><time>2026-04-05T14:51:24.001Z</time></trkpt><trkpt lat="45.5457379544975" lon="11.441117356650215"><ele>94.0</ele><time>2026-04-05T14:51:28.001Z</time></trkpt><trkpt lat="45.54572695846688" lon="11.44120632396227"><ele>94.0</ele><time>2026-04-05T14:51:39.001Z</time></trkpt><trkpt lat="45.545669117624776" lon="11.4412774891266"><ele>92.33333333333333</ele><time>2026-04-05T14:51:45.001Z</time></trkpt><trkpt lat="45.54564439823472" lon="11.441372760800283"><ele>90.66666666666666</ele><time>2026-04-05T14:51:55.001Z</time></trkpt><trkpt lat="45.54561542272551" lon="11.441476974118437"><ele>89.0</ele><time>2026-04-05T14:52:08.001Z</time></trkpt><trkpt lat="45.54559628317714" lon="11.441576050455536"><ele>87.33333333333333</ele><time>2026-04-05T14:52:16.001Z</time></trkpt><trkpt lat="45.5455805123524" lon="11.441683806847799"><ele>85.66666666666667</ele><time>2026-04-05T14:52:30.001Z</time></trkpt><trkpt lat="45.54548972187518" lon="11.441704238365244"><ele>84.0</ele><time>2026-04-05T14:52:46.002Z</time></trkpt><trkpt lat="45.54547635337912" lon="11.441800110097786"><ele>84.0</ele><time>2026-04-05T14:52:53.002Z</time></trkpt><trkpt lat="45.5454209990722" lon="11.441863769133342"><ele>84.0</ele><time>2026-04-05T14:52:59.001Z</time></trkpt><trkpt lat="45.54536344617932" lon="11.441907035582839"><ele>84.0</ele><time>2026-04-05T14:53:06.001Z</time></trkpt><trkpt lat="45.54531559897438" lon="11.441978304150707"><ele>84.0</ele><time>2026-04-05T14:53:14.001Z</time></trkpt><trkpt lat="45.54525092416915" lon="11.441943212768885"><ele>84.0</ele><time>2026-04-05T14:53:23.001Z</time></trkpt><trkpt lat="45.54520103906397" lon="11.442019787874466"><ele>84.0</ele><time>2026-04-05T14:53:30.001Z</time></trkpt><trkpt lat="45.54514046235719" lon="11.442052663215733"><ele>84.0</ele><time>2026-04-05T14:53:36.001Z</time></trkpt><trkpt lat="45.54506799056295" lon="11.442050323315067"><ele>84.33333333333333</ele><time>2026-04-05T14:53:43.001Z</time></trkpt><trkpt lat="45.545053972040826" lon="11.44214222853729"><ele>84.66666666666667</ele><time>2026-04-05T14:53:52.001Z</time></trkpt><trkpt lat="45.54497923236537" lon="11.442159865981305"><ele>85.0</ele><time>2026-04-05T14:53:58.001Z</time></trkpt><trkpt lat="45.544907356701714" lon="11.442203309498149"><ele>85.33333333333334</ele><time>2026-04-05T14:54:11.001Z</time></trkpt><trkpt lat="45.54483440589879" lon="11.442222027196646"><ele>85.66666666666667</ele><time>2026-04-05T14:54:25.001Z</time></trkpt><trkpt lat="45.54476768492809" lon="11.44220569503141"><ele>86.0</ele><time>2026-04-05T14:54:30.001Z</time></trkpt><trkpt lat="45.544673557992965" lon="11.44221897524437"><ele>86.0</ele><time>2026-04-05T14:54:40.001Z</time></trkpt><trkpt lat="45.54460337507953" lon="11.442224621782021"><ele>86.0</ele><time>2026-04-05T14:54:46.001Z</time></trkpt><trkpt lat="45.54453777705217" lon="11.442201591348699"><ele>86.0</ele><time>2026-04-05T14:54:58.001Z</time></trkpt><trkpt lat="45.54447935714363" lon="11.442155332735538"><ele>86.0</ele><time>2026-04-05T14:55:07.001Z</time></trkpt><trkpt lat="45.54440665067128" lon="11.442135426534225"><ele>86.0</ele><time>2026-04-05T14:55:18.001Z</time></trkpt><trkpt lat="45.54428764427114" lon="11.442149207722085"><ele>86.0</ele><time>2026-04-05T14:55:29Z</time></trkpt><trkpt lat="45.54421082102016" lon="11.442134790892382"><ele>86.00000000000001</ele><time>2026-04-05T14:55:32Z</time></trkpt><trkpt lat="45.5441382437362" lon="11.44215791350225"><ele>86.0</ele><time>2026-04-05T14:55:37Z</time></trkpt><trkpt lat="45.5440603421594" lon="11.442133230827162"><ele>86.0</ele><time>2026-04-05T14:55:49Z</time></trkpt><trkpt lat="45.543994883960266" lon="11.44213739455657"><ele>86.0</ele><time>2026-04-05T14:56:00Z</time></trkpt><trkpt lat="45.54392645262242" lon="11.442151748491712"><ele>86.0</ele><time>2026-04-05T14:56:03Z</time></trkpt><trkpt lat="45.5438587766658" lon="11.442162054106875"><ele>86.00000000000001</ele><time>2026-04-05T14:56:06Z</time></trkpt><trkpt lat="45.54379137768778" lon="11.442181424868862"><ele>86.0</ele><time>2026-04-05T14:56:19Z</time></trkpt><trkpt lat="45.54372480514527" lon="11.442203256780338"><ele>86.85714285714286</ele><time>2026-04-05T14:56:21Z</time></trkpt><trkpt lat="45.54365566585129" lon="11.442185301390126"><ele>87.71428571428572</ele><time>2026-04-05T14:56:33Z</time></trkpt><trkpt lat="45.543591698643155" lon="11.442235356504362"><ele>88.57142857142858</ele><time>2026-04-05T14:56:46Z</time></trkpt><trkpt lat="45.54352997772291" lon="11.442253820702101"><ele>89.42857142857143</ele><time>2026-04-05T14:56:50Z</time></trkpt><trkpt lat="45.543464881780714" lon="11.442270915183864"><ele>90.28571428571428</ele><time>2026-04-05T14:56:55Z</time></trkpt><trkpt lat="45.54339713190562" lon="11.442293115631582"><ele>91.14285714285715</ele><time>2026-04-05T14:56:59.001Z</time></trkpt><trkpt lat="45.54333198875054" lon="11.442301671333459"><ele>92.0</ele><time>2026-04-05T14:57:07Z</time></trkpt><trkpt lat="45.54327073402013" lon="11.442333156337783"><ele>92.0</ele><time>2026-04-05T14:57:11Z</time></trkpt><trkpt lat="45.543207458057196" lon="11.442320970787971"><ele>92.0</ele><time>2026-04-05T14:57:17Z</time></trkpt><trkpt lat="45.54313927232862" lon="11.44234960063684"><ele>92.0</ele><time>2026-04-05T14:57:22Z</time></trkpt><trkpt lat="45.54307929950344" lon="11.442381589533044"><ele>92.0</ele><time>2026-04-05T14:57:29Z</time></trkpt><trkpt lat="45.54301204248713" lon="11.442395705204525"><ele>92.0</ele><time>2026-04-05T14:57:35Z</time></trkpt><trkpt lat="45.54295010795135" lon="11.442435219693637"><ele>92.0</ele><time>2026-04-05T14:57:43Z</time></trkpt><trkpt lat="45.542879504683164" lon="11.442454777669985"><ele>92.0</ele><time>2026-04-05T14:57:49Z</time></trkpt><trkpt lat="45.542815917330294" lon="11.442467892809315"><ele>92.66666666666667</ele><time>2026-04-05T14:57:57Z</time></trkpt><trkpt lat="45.54274082711697" lon="11.442489357801536"><ele>93.33333333333334</ele><time>2026-04-05T14:58:06Z</time></trkpt><trkpt lat="45.542681125365625" lon="11.442458312900298"><ele>94.0</ele><time>2026-04-05T14:58:15Z</time></trkpt><trkpt lat="45.54260780143001" lon="11.442472885747378"><ele>94.66666666666667</ele><time>2026-04-05T14:58:23Z</time></trkpt><trkpt lat="45.542499898784584" lon="11.44247936131108"><ele>95.33333333333333</ele><time>2026-04-05T14:58:26Z</time></trkpt><trkpt lat="45.54241929953194" lon="11.442490999957082"><ele>96.0</ele><time>2026-04-05T14:58:31Z</time></trkpt><trkpt lat="45.54235305142676" lon="11.44246151293797"><ele>95.99999999999999</ele><time>2026-04-05T14:58:38Z</time></trkpt><trkpt lat="45.542284860566305" lon="11.442450903861385"><ele>96.0</ele><time>2026-04-05T14:58:47Z</time></trkpt><trkpt lat="45.542216823811216" lon="11.442427509640373"><ele>96.0</ele><time>2026-04-05T14:58:55Z</time></trkpt><trkpt lat="45.54213817096788" lon="11.44240564690321"><ele>96.0</ele><time>2026-04-05T14:59:03Z</time></trkpt><trkpt lat="45.54207365706227" lon="11.442390388366675"><ele>96.0</ele><time>2026-04-05T14:59:09Z</time></trkpt><trkpt lat="45.5420053804305" lon="11.442379125894487"><ele>95.99999999999999</ele><time>2026-04-05T14:59:17Z</time></trkpt><trkpt lat="45.54192729138684" lon="11.442361249417502"><ele>96.0</ele><time>2026-04-05T14:59:25Z</time></trkpt><trkpt lat="45.54185856922495" lon="11.442389220152828"><ele>95.66666666666667</ele><time>2026-04-05T14:59:34Z</time></trkpt><trkpt lat="45.54192217910525" lon="11.442334632653353"><ele>95.33333333333333</ele><time>2026-04-05T14:59:39Z</time></trkpt><trkpt lat="45.54179734395426" lon="11.442328682194228"><ele>95.0</ele><time>2026-04-05T14:59:51Z</time></trkpt><trkpt lat="45.54172502807061" lon="11.442346308337344"><ele>94.66666666666666</ele><time>2026-04-05T14:59:53Z</time></trkpt><trkpt lat="45.541654271767825" lon="11.442333432289322"><ele>94.33333333333333</ele><time>2026-04-05T14:59:58Z</time></trkpt><trkpt lat="45.541585999124194" lon="11.442291627317342"><ele>94.0</ele><time>2026-04-05T15:00:03Z</time></trkpt><trkpt lat="45.541521044452786" lon="11.442285507243035"><ele>94.0</ele><time>2026-04-05T15:00:19Z</time></trkpt><trkpt lat="45.54145093499369" lon="11.442285356208101"><ele>94.0</ele><time>2026-04-05T15:00:23Z</time></trkpt><trkpt lat="45.54137192641001" lon="11.4422725811969"><ele>94.0</ele><time>2026-04-05T15:00:27Z</time></trkpt><trkpt lat="45.54130404341935" lon="11.442237538871483"><ele>94.0</ele><time>2026-04-05T15:00:33Z</time></trkpt><trkpt lat="45.54122937041517" lon="11.442212937599493"><ele>94.0</ele><time>2026-04-05T15:00:40Z</time></trkpt><trkpt lat="45.54116602024813" lon="11.442219541197415"><ele>94.0</ele><time>2026-04-05T15:00:55.999Z</time></trkpt><trkpt lat="45.541107113705365" lon="11.442166176119676"><ele>94.0</ele><time>2026-04-05T15:01:06.999Z</time></trkpt><trkpt lat="45.54104031682306" lon="11.44215592798992"><ele>97.0</ele><time>2026-04-05T15:01:16Z</time></trkpt><trkpt lat="45.54097764748453" lon="11.442112889108305"><ele>100.0</ele><time>2026-04-05T15:01:24Z</time></trkpt><trkpt lat="45.540902939175695" lon="11.442086878230347"><ele>103.0</ele><time>2026-04-05T15:01:31Z</time></trkpt><trkpt lat="45.54083991671412" lon="11.442071955278971"><ele>106.0</ele><time>2026-04-05T15:01:37Z</time></trkpt><trkpt lat="45.540774430361424" lon="11.44204307658095"><ele>109.0</ele><time>2026-04-05T15:01:47Z</time></trkpt><trkpt lat="45.54069593325917" lon="11.442021746196676"><ele>111.99999999999999</ele><time>2026-04-05T15:02:01Z</time></trkpt><trkpt lat="45.54063272058748" lon="11.442029713015208"><ele>114.99999999999999</ele><time>2026-04-05T15:02:07Z</time></trkpt><trkpt lat="45.540567017669474" lon="11.442021798219733"><ele>114.99999999999999</ele><time>2026-04-05T15:02:12Z</time></trkpt><trkpt lat="45.54050678101143" lon="11.441988063891165"><ele>115.0</ele><time>2026-04-05T15:02:20Z</time></trkpt><trkpt lat="45.540442587142266" lon="11.44198350916325"><ele>114.99999999999999</ele><time>2026-04-05T15:02:28Z</time></trkpt><trkpt lat="45.54036914920819" lon="11.441944087274246"><ele>114.99999999999999</ele><time>2026-04-05T15:02:36Z</time></trkpt><trkpt lat="45.54030247015565" lon="11.441927813724327"><ele>115.0</ele><time>2026-04-05T15:02:45Z</time></trkpt><trkpt lat="45.54023943372695" lon="11.441908546365314"><ele>114.99999999999999</ele><time>2026-04-05T15:02:49.999Z</time></trkpt><trkpt lat="45.540174323267465" lon="11.441888003161928"><ele>114.99999999999999</ele><time>2026-04-05T15:02:56.999Z</time></trkpt><trkpt lat="45.54009646689266" lon="11.44188686324504"><ele>114.00000000000001</ele><time>2026-04-05T15:03:03.999Z</time></trkpt><trkpt lat="45.54003176097939" lon="11.441848337257383"><ele>113.0</ele><time>2026-04-05T15:03:09.999Z</time></trkpt><trkpt lat="45.53996588433802" lon="11.441858800616137"><ele>112.0</ele><time>2026-04-05T15:03:17Z</time></trkpt><trkpt lat="45.53988218962637" lon="11.441826596177412"><ele>111.0</ele><time>2026-04-05T15:03:27Z</time></trkpt><trkpt lat="45.53981970370632" lon="11.441809826433635"><ele>110.00000000000001</ele><time>2026-04-05T15:03:33Z</time></trkpt><trkpt lat="45.539747400519204" lon="11.441770553694482"><ele>109.0</ele><time>2026-04-05T15:03:49Z</time></trkpt><trkpt lat="45.53962576487329" lon="11.441793046148169"><ele>109.00000000000001</ele><time>2026-04-05T15:04:03Z</time></trkpt><trkpt lat="45.53955522314356" lon="11.441823394683688"><ele>109.0</ele><time>2026-04-05T15:04:05Z</time></trkpt><trkpt lat="45.53944281078564" lon="11.44182473162949"><ele>109.0</ele><time>2026-04-05T15:04:14Z</time></trkpt><trkpt lat="45.53937931963828" lon="11.441842552976333"><ele>109.0</ele><time>2026-04-05T15:04:22Z</time></trkpt><trkpt lat="45.53930901856026" lon="11.441851351004544"><ele>109.00000000000001</ele><time>2026-04-05T15:04:33Z</time></trkpt><trkpt lat="45.53923812454553" lon="11.441868070668923"><ele>109.0</ele><time>2026-04-05T15:04:39Z</time></trkpt><trkpt lat="45.53912729453675" lon="11.441891872936019"><ele>109.14285714285714</ele><time>2026-04-05T15:04:43Z</time></trkpt><trkpt lat="45.53906267363906" lon="11.441907331617506"><ele>109.28571428571429</ele><time>2026-04-05T15:04:48Z</time></trkpt><trkpt lat="45.538998891711245" lon="11.441909711163152"><ele>109.42857142857142</ele><time>2026-04-05T15:04:51.999Z</time></trkpt><trkpt lat="45.538936160764294" lon="11.441930539873006"><ele>109.57142857142857</ele><time>2026-04-05T15:05:04.999Z</time></trkpt><trkpt lat="45.538850787076065" lon="11.441955353141996"><ele>109.71428571428571</ele><time>2026-04-05T15:05:09.999Z</time></trkpt><trkpt lat="45.538781293790606" lon="11.441982939179015"><ele>109.85714285714285</ele><time>2026-04-05T15:05:21Z</time></trkpt><trkpt lat="45.53871471247921" lon="11.44201592551746"><ele>110.0</ele><time>2026-04-05T15:05:29Z</time></trkpt><trkpt lat="45.538610043434645" lon="11.442059778221644"><ele>109.99999999999999</ele><time>2026-04-05T15:05:34Z</time></trkpt><trkpt lat="45.53854418321184" lon="11.442070155847523"><ele>110.0</ele><time>2026-04-05T15:05:36Z</time></trkpt><trkpt lat="45.53848568830668" lon="11.442103439603827"><ele>110.0</ele><time>2026-04-05T15:05:41Z</time></trkpt><trkpt lat="45.53841830178453" lon="11.442143608699169"><ele>110.0</ele><time>2026-04-05T15:05:55Z</time></trkpt><trkpt lat="45.53834754931451" lon="11.442183083815964"><ele>110.0</ele><time>2026-04-05T15:06:02Z</time></trkpt><trkpt lat="45.538270604483316" lon="11.442224162849717"><ele>109.99999999999999</ele><time>2026-04-05T15:06:07Z</time></trkpt><trkpt lat="45.53820561169462" lon="11.44222662936399"><ele>110.0</ele><time>2026-04-05T15:06:11Z</time></trkpt><trkpt lat="45.53813210842895" lon="11.44228426978145"><ele>108.49999999999999</ele><time>2026-04-05T15:06:21Z</time></trkpt><trkpt lat="45.53806753430869" lon="11.442290755740745"><ele>107.0</ele><time>2026-04-05T15:06:34Z</time></trkpt><trkpt lat="45.538008234627306" lon="11.442341422568527"><ele>105.5</ele><time>2026-04-05T15:06:45Z</time></trkpt><trkpt lat="45.53793023983228" lon="11.442342057525824"><ele>104.0</ele><time>2026-04-05T15:06:48Z</time></trkpt><trkpt lat="45.53784655058242" lon="11.442353517361408"><ele>102.49999999999999</ele><time>2026-04-05T15:06:50Z</time></trkpt><trkpt lat="45.53777905189232" lon="11.442385198411207"><ele>101.0</ele><time>2026-04-05T15:06:59Z</time></trkpt><trkpt lat="45.53769827583813" lon="11.442410499621323"><ele>101.0</ele><time>2026-04-05T15:07:06Z</time></trkpt><trkpt lat="45.53763112780818" lon="11.442432433401574"><ele>101.0</ele><time>2026-04-05T15:07:08Z</time></trkpt><trkpt lat="45.53756050591608" lon="11.44246165588694"><ele>101.0</ele><time>2026-04-05T15:07:15Z</time></trkpt><trkpt lat="45.53748128186334" lon="11.442484636393118"><ele>101.0</ele><time>2026-04-05T15:07:20Z</time></trkpt><trkpt lat="45.537417578921314" lon="11.44250951679799"><ele>101.0</ele><time>2026-04-05T15:07:26Z</time></trkpt><trkpt lat="45.53734710698922" lon="11.442530551183067"><ele>101.0</ele><time>2026-04-05T15:07:33Z</time></trkpt><trkpt lat="45.537284117448536" lon="11.442569601644927"><ele>101.0</ele><time>2026-04-05T15:07:39Z</time></trkpt><trkpt lat="45.53721517585746" lon="11.44258979921905"><ele>101.0</ele><time>2026-04-05T15:07:47Z</time></trkpt><trkpt lat="45.5371495963035" lon="11.442620717896684"><ele>101.0</ele><time>2026-04-05T15:07:54Z</time></trkpt><trkpt lat="45.537079580199574" lon="11.442657781880751"><ele>101.0</ele><time>2026-04-05T15:08:01Z</time></trkpt><trkpt lat="45.53701659223979" lon="11.442679695320562"><ele>101.0</ele><time>2026-04-05T15:08:06Z</time></trkpt><trkpt lat="45.5369516411765" lon="11.442704550741361"><ele>101.0</ele><time>2026-04-05T15:08:12Z</time></trkpt><trkpt lat="45.53688564677119" lon="11.44270725912686"><ele>101.0</ele><time>2026-04-05T15:08:18Z</time></trkpt><trkpt lat="45.53681767707321" lon="11.442715665077111"><ele>101.0</ele><time>2026-04-05T15:08:26Z</time></trkpt><trkpt lat="45.53674803794583" lon="11.442713662741378"><ele>101.14285714285714</ele><time>2026-04-05T15:08:35Z</time></trkpt><trkpt lat="45.5366837082908" lon="11.442723232202725"><ele>101.28571428571428</ele><time>2026-04-05T15:08:40Z</time></trkpt><trkpt lat="45.53661727577332" lon="11.442681520830574"><ele>101.42857142857143</ele><time>2026-04-05T15:08:49Z</time></trkpt><trkpt lat="45.536535229609406" lon="11.442730986232027"><ele>101.57142857142857</ele><time>2026-04-05T15:08:53Z</time></trkpt><trkpt lat="45.53646824762109" lon="11.442711164541153"><ele>101.71428571428572</ele><time>2026-04-05T15:08:58Z</time></trkpt><trkpt lat="45.53642059167986" lon="11.442651773100286"><ele>101.85714285714286</ele><time>2026-04-05T15:09:05Z</time></trkpt><trkpt lat="45.53638406228653" lon="11.442575108777772"><ele>102.0</ele><time>2026-04-05T15:09:10Z</time></trkpt><trkpt lat="45.536362621848916" lon="11.442489861747182"><ele>102.0</ele><time>2026-04-05T15:09:18Z</time></trkpt><trkpt lat="45.53641374082451" lon="11.442427034610223"><ele>102.0</ele><time>2026-04-05T15:09:27.999Z</time></trkpt><trkpt lat="45.53647735139375" lon="11.44239661342873"><ele>102.0</ele><time>2026-04-05T15:09:37Z</time></trkpt><trkpt lat="45.53655085653107" lon="11.44236659591682"><ele>102.0</ele><time>2026-04-05T15:09:44Z</time></trkpt><trkpt lat="45.53661696500724" lon="11.442325097229004"><ele>102.0</ele><time>2026-04-05T15:09:50Z</time></trkpt><trkpt lat="45.53667674454148" lon="11.442283771867526"><ele>102.0</ele><time>2026-04-05T15:09:59Z</time></trkpt><trkpt lat="45.53674309645387" lon="11.442246929646805"><ele>102.0</ele><time>2026-04-05T15:10:06Z</time></trkpt><trkpt lat="45.53679489782598" lon="11.44218458250852"><ele>101.71428571428572</ele><time>2026-04-05T15:10:14Z</time></trkpt><trkpt lat="45.536843869199984" lon="11.442126382841812"><ele>101.42857142857143</ele><time>2026-04-05T15:10:18Z</time></trkpt><trkpt lat="45.53687994470719" lon="11.442051291106193"><ele>101.14285714285714</ele><time>2026-04-05T15:10:23Z</time></trkpt><trkpt lat="45.53693352890341" lon="11.441978502733937"><ele>100.85714285714286</ele><time>2026-04-05T15:10:33Z</time></trkpt><trkpt lat="45.536995257751975" lon="11.44192222051443"><ele>100.57142857142857</ele><time>2026-04-05T15:10:40Z</time></trkpt><trkpt lat="45.537058255087516" lon="11.441903829705032"><ele>100.28571428571429</ele><time>2026-04-05T15:10:45Z</time></trkpt><trkpt lat="45.53712282064804" lon="11.441852558642616"><ele>100.0</ele><time>2026-04-05T15:10:51Z</time></trkpt><trkpt lat="45.53717906483163" lon="11.441800026049908"><ele>101.71428571428572</ele><time>2026-04-05T15:10:56Z</time></trkpt><trkpt lat="45.53721833776896" lon="11.441717176829787"><ele>103.42857142857143</ele><time>2026-04-05T15:11:02Z</time></trkpt><trkpt lat="45.537249478816335" lon="11.441638589710328"><ele>105.14285714285714</ele><time>2026-04-05T15:11:10Z</time></trkpt><trkpt lat="45.537276513268395" lon="11.441547818460098"><ele>106.85714285714286</ele><time>2026-04-05T15:11:17Z</time></trkpt><trkpt lat="45.53731159840475" lon="11.441469631300356"><ele>108.57142857142857</ele><time>2026-04-05T15:11:25Z</time></trkpt><trkpt lat="45.53731777390996" lon="11.441369905997375"><ele>110.28571428571429</ele><time>2026-04-05T15:11:34Z</time></trkpt><trkpt lat="45.53734192327437" lon="11.441281359800158"><ele>112.0</ele><time>2026-04-05T15:11:39Z</time></trkpt><trkpt lat="45.53736701456587" lon="11.441197119510395"><ele>112.71428571428572</ele><time>2026-04-05T15:11:46Z</time></trkpt><trkpt lat="45.537380337151696" lon="11.44109648509875"><ele>113.42857142857143</ele><time>2026-04-05T15:11:52Z</time></trkpt><trkpt lat="45.53740495467383" lon="11.441012251474119"><ele>114.14285714285714</ele><time>2026-04-05T15:11:57Z</time></trkpt><trkpt lat="45.537435859114595" lon="11.44093188539556"><ele>114.85714285714286</ele><time>2026-04-05T15:12:04Z</time></trkpt><trkpt lat="45.53741567857546" lon="11.440841546349732"><ele>115.57142857142858</ele><time>2026-04-05T15:12:20Z</time></trkpt><trkpt lat="45.53742904645448" lon="11.440739301348424"><ele>116.28571428571429</ele><time>2026-04-05T15:12:26Z</time></trkpt><trkpt lat="45.53745840745198" lon="11.440649907564927"><ele>117.0</ele><time>2026-04-05T15:12:31Z</time></trkpt><trkpt lat="45.53747884768521" lon="11.440563642844214"><ele>117.0</ele><time>2026-04-05T15:12:37Z</time></trkpt><trkpt lat="45.53749134762509" lon="11.440469976180417"><ele>117.00000000000001</ele><time>2026-04-05T15:12:42Z</time></trkpt><trkpt lat="45.53752459572577" lon="11.440392300031325"><ele>117.0</ele><time>2026-04-05T15:12:48Z</time></trkpt><trkpt lat="45.537574454371864" lon="11.4403352311303"><ele>117.0</ele><time>2026-04-05T15:12:56Z</time></trkpt><trkpt lat="45.53760672144763" lon="11.440252406377443"><ele>117.00000000000001</ele><time>2026-04-05T15:13:04Z</time></trkpt><trkpt lat="45.5376445092051" lon="11.440170844907236"><ele>117.0</ele><time>2026-04-05T15:13:12Z</time></trkpt><trkpt lat="45.537697202722214" lon="11.440103827302291"><ele>117.0</ele><time>2026-04-05T15:13:18Z</time></trkpt><trkpt lat="45.537744698153745" lon="11.440044274180478"><ele>116.42857142857143</ele><time>2026-04-05T15:13:24Z</time></trkpt><trkpt lat="45.53780693885869" lon="11.439993216387672"><ele>115.85714285714286</ele><time>2026-04-05T15:13:31Z</time></trkpt><trkpt lat="45.53786266583422" lon="11.43994432202276"><ele>115.28571428571429</ele><time>2026-04-05T15:13:37Z</time></trkpt><trkpt lat="45.5379344851972" lon="11.439925752372252"><ele>114.71428571428572</ele><time>2026-04-05T15:13:45Z</time></trkpt><trkpt lat="45.53799770500429" lon="11.439918067161377"><ele>114.14285714285714</ele><time>2026-04-05T15:13:51Z</time></trkpt><trkpt lat="45.538072622987656" lon="11.439900878834681"><ele>113.57142857142858</ele><time>2026-04-05T15:14:00Z</time></trkpt><trkpt lat="45.53813968908778" lon="11.439884136315566"><ele>113.0</ele><time>2026-04-05T15:14:10Z</time></trkpt><trkpt lat="45.53820677658847" lon="11.439887533536867"><ele>115.28571428571429</ele><time>2026-04-05T15:14:18Z</time></trkpt><trkpt lat="45.53827569314198" lon="11.439890639713175"><ele>117.57142857142856</ele><time>2026-04-05T15:14:24Z</time></trkpt><trkpt lat="45.538346142381144" lon="11.439879057247511"><ele>119.85714285714285</ele><time>2026-04-05T15:14:31Z</time></trkpt><trkpt lat="45.53841215599219" lon="11.439881837217515"><ele>122.14285714285714</ele><time>2026-04-05T15:14:39Z</time></trkpt><trkpt lat="45.53848079984174" lon="11.439901554026646"><ele>124.42857142857142</ele><time>2026-04-05T15:14:48Z</time></trkpt><trkpt lat="45.538549132233754" lon="11.439929025498238"><ele>126.7142857142857</ele><time>2026-04-05T15:15:06Z</time></trkpt><trkpt lat="45.53861972117479" lon="11.439937054983973"><ele>129.0</ele><time>2026-04-05T15:15:13Z</time></trkpt><trkpt lat="45.53868936728135" lon="11.439925159967336"><ele>130.7142857142857</ele><time>2026-04-05T15:15:26Z</time></trkpt><trkpt lat="45.5387527885873" lon="11.439943327508564"><ele>132.42857142857142</ele><time>2026-04-05T15:15:32Z</time></trkpt><trkpt lat="45.53882536299276" lon="11.439945981729577"><ele>134.14285714285714</ele><time>2026-04-05T15:15:41Z</time></trkpt><trkpt lat="45.53889680386166" lon="11.439930183662504"><ele>135.85714285714283</ele><time>2026-04-05T15:15:49Z</time></trkpt><trkpt lat="45.53895863459231" lon="11.439962067655472"><ele>137.57142857142856</ele><time>2026-04-05T15:15:58Z</time></trkpt><trkpt lat="45.539024187838436" lon="11.439998164559979"><ele>139.28571428571428</ele><time>2026-04-05T15:16:07Z</time></trkpt><trkpt lat="45.539081659930034" lon="11.44004074199368"><ele>141.0</ele><time>2026-04-05T15:16:15Z</time></trkpt><trkpt lat="45.539136020899385" lon="11.440109737535797"><ele>141.0</ele><time>2026-04-05T15:16:22Z</time></trkpt><trkpt lat="45.539204764324246" lon="11.440143000477082"><ele>141.0</ele><time>2026-04-05T15:16:28Z</time></trkpt><trkpt lat="45.53927392171368" lon="11.440174208846782"><ele>141.0</ele><time>2026-04-05T15:16:35Z</time></trkpt><trkpt lat="45.539335698557174" lon="11.4402009436671"><ele>141.0</ele><time>2026-04-05T15:16:44Z</time></trkpt><trkpt lat="45.539404197515964" lon="11.440213422318473"><ele>141.0</ele><time>2026-04-05T15:16:50Z</time></trkpt><trkpt lat="45.53946907562" lon="11.440210770148447"><ele>141.0</ele><time>2026-04-05T15:16:56Z</time></trkpt><trkpt lat="45.539538650441344" lon="11.440236159871356"><ele>141.0</ele><time>2026-04-05T15:17:03Z</time></trkpt><trkpt lat="45.53960585496035" lon="11.440243370951997"><ele>142.42857142857144</ele><time>2026-04-05T15:17:10Z</time></trkpt><trkpt lat="45.53966966277182" lon="11.440243349880967"><ele>143.85714285714286</ele><time>2026-04-05T15:17:16Z</time></trkpt><trkpt lat="45.539737943304836" lon="11.440249348821204"><ele>145.28571428571428</ele><time>2026-04-05T15:17:23Z</time></trkpt><trkpt lat="45.539802719404754" lon="11.440264293196615"><ele>146.71428571428572</ele><time>2026-04-05T15:17:29Z</time></trkpt><trkpt lat="45.539869752158026" lon="11.440269690221779"><ele>148.14285714285714</ele><time>2026-04-05T15:17:37Z</time></trkpt><trkpt lat="45.53994478916596" lon="11.440278069789017"><ele>149.57142857142858</ele><time>2026-04-05T15:17:43Z</time></trkpt><trkpt lat="45.540009755281325" lon="11.440282248933048"><ele>151.0</ele><time>2026-04-05T15:17:51Z</time></trkpt><trkpt lat="45.54007615193837" lon="11.440301919176814"><ele>151.00000000000003</ele><time>2026-04-05T15:17:58Z</time></trkpt><trkpt lat="45.54013929991123" lon="11.44031889851293"><ele>151.0</ele><time>2026-04-05T15:18:04Z</time></trkpt><trkpt lat="45.54020442092367" lon="11.440334676054858"><ele>151.0</ele><time>2026-04-05T15:18:09Z</time></trkpt><trkpt lat="45.5402677633116" lon="11.440300827818895"><ele>151.0</ele><time>2026-04-05T15:18:16Z</time></trkpt><trkpt lat="45.54033650467751" lon="11.44029862000061"><ele>151.0</ele><time>2026-04-05T15:18:23Z</time></trkpt><trkpt lat="45.54040665464152" lon="11.440285941134313"><ele>151.00000000000003</ele><time>2026-04-05T15:18:29Z</time></trkpt><trkpt lat="45.54047752013574" lon="11.440248108546946"><ele>151.0</ele><time>2026-04-05T15:18:36Z</time></trkpt><trkpt lat="45.54054340114607" lon="11.44022517827802"><ele>151.85714285714286</ele><time>2026-04-05T15:18:43Z</time></trkpt><trkpt lat="45.54060976360266" lon="11.440197746485687"><ele>152.71428571428572</ele><time>2026-04-05T15:18:49Z</time></trkpt><trkpt lat="45.540670686403516" lon="11.440128504824633"><ele>153.57142857142856</ele><time>2026-04-05T15:18:58Z</time></trkpt><trkpt lat="45.5407308785146" lon="11.440100583927318"><ele>154.42857142857144</ele><time>2026-04-05T15:19:05Z</time></trkpt><trkpt lat="45.54078971903922" lon="11.44006277368721"><ele>155.28571428571428</ele><time>2026-04-05T15:19:12Z</time></trkpt><trkpt lat="45.54085026639015" lon="11.44002958550437"><ele>156.14285714285714</ele><time>2026-04-05T15:19:19Z</time></trkpt><trkpt lat="45.540927040149214" lon="11.439991437093111"><ele>157.0</ele><time>2026-04-05T15:19:25Z</time></trkpt><trkpt lat="45.54099188490599" lon="11.439966698146394"><ele>156.99999999999997</ele><time>2026-04-05T15:19:31Z</time></trkpt><trkpt lat="45.54105759502265" lon="11.439943568498496"><ele>157.0</ele><time>2026-04-05T15:19:40Z</time></trkpt><trkpt lat="45.54112765927829" lon="11.439918781418042"><ele>157.0</ele><time>2026-04-05T15:19:46Z</time></trkpt><trkpt lat="45.541199111097235" lon="11.43989559538252"><ele>157.0</ele><time>2026-04-05T15:19:51.999Z</time></trkpt><trkpt lat="45.54126405313882" lon="11.439899211819586"><ele>157.0</ele><time>2026-04-05T15:20:00.999Z</time></trkpt><trkpt lat="45.541328771460336" lon="11.439925211976178"><ele>156.99999999999997</ele><time>2026-04-05T15:20:08Z</time></trkpt><trkpt lat="45.54139247859389" lon="11.43997365883451"><ele>157.0</ele><time>2026-04-05T15:20:13Z</time></trkpt><trkpt lat="45.5414476331939" lon="11.440019945715166"><ele>157.7142857142857</ele><time>2026-04-05T15:20:19Z</time></trkpt><trkpt lat="45.541507973230914" lon="11.440063530223902"><ele>158.42857142857142</ele><time>2026-04-05T15:20:24Z</time></trkpt><trkpt lat="45.541579458542365" lon="11.440083213942843"><ele>159.14285714285714</ele><time>2026-04-05T15:20:32Z</time></trkpt><trkpt lat="45.54164743613837" lon="11.440116322332953"><ele>159.85714285714283</ele><time>2026-04-05T15:20:37Z</time></trkpt><trkpt lat="45.54171189310327" lon="11.44015762107145"><ele>160.57142857142856</ele><time>2026-04-05T15:20:43Z</time></trkpt><trkpt lat="45.541772984120406" lon="11.440180232118522"><ele>161.28571428571428</ele><time>2026-04-05T15:20:48Z</time></trkpt><trkpt lat="45.54184052359883" lon="11.44021296492493"><ele>162.0</ele><time>2026-04-05T15:20:54Z</time></trkpt><trkpt lat="45.541902128688626" lon="11.44023556216285"><ele>162.0</ele><time>2026-04-05T15:21:02Z</time></trkpt><trkpt lat="45.54197239366615" lon="11.440247958259253"><ele>162.0</ele><time>2026-04-05T15:21:08Z</time></trkpt><trkpt lat="45.54205249671671" lon="11.440254571295775"><ele>162.0</ele><time>2026-04-05T15:21:15Z</time></trkpt><trkpt lat="45.54211425709884" lon="11.440272316750294"><ele>162.0</ele><time>2026-04-05T15:21:20Z</time></trkpt><trkpt lat="45.54217873875631" lon="11.44029217885506"><ele>162.0</ele><time>2026-04-05T15:21:29Z</time></trkpt><trkpt lat="45.54224693228495" lon="11.440282449833909"><ele>162.0</ele><time>2026-04-05T15:21:34Z</time></trkpt><trkpt lat="45.542327635162984" lon="11.440246654014857"><ele>162.0</ele><time>2026-04-05T15:21:41Z</time></trkpt><trkpt lat="45.54239746780197" lon="11.44022957622019"><ele>162.57142857142858</ele><time>2026-04-05T15:21:45.999Z</time></trkpt><trkpt lat="45.54247154553596" lon="11.440216988390087"><ele>163.14285714285714</ele><time>2026-04-05T15:21:50.999Z</time></trkpt><trkpt lat="45.542535525135825" lon="11.440187239021165"><ele>163.71428571428572</ele><time>2026-04-05T15:21:55.999Z</time></trkpt><trkpt lat="45.542614638727805" lon="11.440166699819873"><ele>164.28571428571428</ele><time>2026-04-05T15:22:01.999Z</time></trkpt><trkpt lat="45.54267141351969" lon="11.440127835780904"><ele>164.85714285714286</ele><time>2026-04-05T15:22:08Z</time></trkpt><trkpt lat="45.54272945255711" lon="11.440085936866353"><ele>165.42857142857142</ele><time>2026-04-05T15:22:13Z</time></trkpt><trkpt lat="45.5427981893039" lon="11.440074842502042"><ele>166.0</ele><time>2026-04-05T15:22:20Z</time></trkpt><trkpt lat="45.542856315595785" lon="11.440039176139818"><ele>165.85714285714286</ele><time>2026-04-05T15:22:25Z</time></trkpt><trkpt lat="45.54291946839995" lon="11.440018627220457"><ele>165.71428571428572</ele><time>2026-04-05T15:22:30Z</time></trkpt><trkpt lat="45.542987614828114" lon="11.439998053497805"><ele>165.57142857142858</ele><time>2026-04-05T15:22:37Z</time></trkpt><trkpt lat="45.54305655412599" lon="11.43996972543786"><ele>165.42857142857144</ele><time>2026-04-05T15:22:43Z</time></trkpt><trkpt lat="45.54312141907207" lon="11.439936757165343"><ele>165.28571428571428</ele><time>2026-04-05T15:22:50Z</time></trkpt><trkpt lat="45.54318288709948" lon="11.439916546063642"><ele>165.14285714285717</ele><time>2026-04-05T15:22:57Z</time></trkpt><trkpt lat="45.54324503573859" lon="11.439871016243485"><ele>165.0</ele><time>2026-04-05T15:23:02Z</time></trkpt><trkpt lat="45.54330434372287" lon="11.439829164273375"><ele>165.00000000000003</ele><time>2026-04-05T15:23:08Z</time></trkpt><trkpt lat="45.543355399071544" lon="11.43977639029681"><ele>165.0</ele><time>2026-04-05T15:23:14Z</time></trkpt><trkpt lat="45.54341664723163" lon="11.439754209730987"><ele>165.0</ele><time>2026-04-05T15:23:21Z</time></trkpt><trkpt lat="45.54347946473971" lon="11.439714259029957"><ele>165.0</ele><time>2026-04-05T15:23:28Z</time></trkpt><trkpt lat="45.54353785955373" lon="11.439676039971722"><ele>165.0</ele><time>2026-04-05T15:23:32Z</time></trkpt><trkpt lat="45.543593048964084" lon="11.439624625170758"><ele>165.00000000000003</ele><time>2026-04-05T15:23:38Z</time></trkpt><trkpt lat="45.54364814193685" lon="11.43957367096451"><ele>165.0</ele><time>2026-04-05T15:23:43Z</time></trkpt><trkpt lat="45.54371157955059" lon="11.439535552271577"><ele>165.0</ele><time>2026-04-05T15:23:49Z</time></trkpt><trkpt lat="45.54377701048525" lon="11.439502729308417"><ele>165.0</ele><time>2026-04-05T15:23:54.999Z</time></trkpt><trkpt lat="45.54384434564111" lon="11.439473724674647"><ele>165.0</ele><time>2026-04-05T15:24:01.999Z</time></trkpt><trkpt lat="45.5439097629613" lon="11.439430208215393"><ele>165.0</ele><time>2026-04-05T15:24:08.999Z</time></trkpt><trkpt lat="45.54397548942782" lon="11.43938146140161"><ele>165.0</ele><time>2026-04-05T15:24:15Z</time></trkpt><trkpt lat="45.54404526244692" lon="11.439316918213018"><ele>165.0</ele><time>2026-04-05T15:24:22Z</time></trkpt><trkpt lat="45.54410842946956" lon="11.439238889035794"><ele>165.00000000000003</ele><time>2026-04-05T15:24:29Z</time></trkpt><trkpt lat="45.54417356895392" lon="11.439208303431558"><ele>165.0</ele><time>2026-04-05T15:24:36Z</time></trkpt><trkpt lat="45.54422744520252" lon="11.43916039914719"><ele>165.0</ele><time>2026-04-05T15:24:42Z</time></trkpt><trkpt lat="45.54428947027663" lon="11.439112612637919"><ele>165.0</ele><time>2026-04-05T15:24:49Z</time></trkpt><trkpt lat="45.54435374041622" lon="11.439064915915896"><ele>165.0</ele><time>2026-04-05T15:24:56Z</time></trkpt><trkpt lat="45.54441016913839" lon="11.439020818632622"><ele>165.00000000000003</ele><time>2026-04-05T15:25:02Z</time></trkpt><trkpt lat="45.54446371973566" lon="11.43896880053451"><ele>165.0</ele><time>2026-04-05T15:25:08Z</time></trkpt><trkpt lat="45.544516792982975" lon="11.438919122035921"><ele>164.57142857142858</ele><time>2026-04-05T15:25:14Z</time></trkpt><trkpt lat="45.54457285599498" lon="11.43887142284255"><ele>164.14285714285714</ele><time>2026-04-05T15:25:20Z</time></trkpt><trkpt lat="45.544630122335626" lon="11.438807309403922"><ele>163.71428571428572</ele><time>2026-04-05T15:25:26Z</time></trkpt><trkpt lat="45.54469538650206" lon="11.438763007203372"><ele>163.28571428571428</ele><time>2026-04-05T15:25:34Z</time></trkpt><trkpt lat="45.54476058680376" lon="11.438745692755239"><ele>162.85714285714286</ele><time>2026-04-05T15:25:41Z</time></trkpt><trkpt lat="45.54482091145737" lon="11.438705274455431"><ele>162.42857142857144</ele><time>2026-04-05T15:26:08Z</time></trkpt><trkpt lat="45.54487741579787" lon="11.43865032685444"><ele>162.0</ele><time>2026-04-05T15:26:15.999Z</time></trkpt><trkpt lat="45.544934354554854" lon="11.438594422544242"><ele>162.0</ele><time>2026-04-05T15:26:20.998Z</time></trkpt><trkpt lat="45.54499580133192" lon="11.438539650717276"><ele>162.0</ele><time>2026-04-05T15:26:28.998Z</time></trkpt><trkpt lat="45.54505908532186" lon="11.438502887044276"><ele>162.0</ele><time>2026-04-05T15:26:35.998Z</time></trkpt><trkpt lat="45.54511008827474" lon="11.43844528691555"><ele>162.0</ele><time>2026-04-05T15:26:41.999Z</time></trkpt><trkpt lat="45.54517085932409" lon="11.438396310435902"><ele>162.0</ele><time>2026-04-05T15:26:47.999Z</time></trkpt><trkpt lat="45.54523258830357" lon="11.438332100990042"><ele>162.0</ele><time>2026-04-05T15:26:54.999Z</time></trkpt><trkpt lat="45.54531182807088" lon="11.43828078917371"><ele>162.0</ele><time>2026-04-05T15:27:00.999Z</time></trkpt></trkseg></trk></gpx>